sensor_id;sensor_type;location;lat;lon;timestamp;temperature;humidity
19892;DHT22;10108;50.142;8.724;2024-02-21T00:02:01;9.50;99.90
19892;DHT22;10108;50.142;8.724;2024-02-21T00:04:27;9.40;99.90
19892;DHT22;10108;50.142;8.724;2024-02-21T00:06:53;9.30;99.90
19892;DHT22;10108;50.142;8.724;2024-02-21T00:09:20;9.30;99.90
19892;DHT22;10108;50.142;8.724;2024-02-21T00:11:46;9.20;99.90
19892;DHT22;10108;50.142;8.724;2024-02-21T00:14:13;9.10;99.90
19892;DHT22;10108;50.142;8.724;2024-02-21T00:16:40;9.10;99.90
19892;DHT22;10108;50.142;8.724;2024-02-21T00:19:06;9.20;99.90
19892;DHT22;10108;50.142;8.724;2024-02-21T00:21:32;9.20;99.90
19892;DHT22;10108;50.142;8.724;2024-02-21T00:23:59;9.10;99.90
19892;DHT22;10108;50.142;8.724;2024-02-21T00:26:25;9.10;99.90
19892;DHT22;10108;50.142;8.724;2024-02-21T00:28:51;9.10;99.90
19892;DHT22;10108;50.142;8.724;2024-02-21T00:31:18;9.10;99.90
19892;DHT22;10108;50.142;8.724;2024-02-21T00:33:44;9.00;99.90
19892;DHT22;10108;50.142;8.724;2024-02-21T00:36:10;9.00;99.90
19892;DHT22;10108;50.142;8.724;2024-02-21T00:38:37;9.10;99.90
19892;DHT22;10108;50.142;8.724;2024-02-21T00:41:03;9.10;99.90
19892;DHT22;10108;50.142;8.724;2024-02-21T00:43:29;9.10;99.90
19892;DHT22;10108;50.142;8.724;2024-02-21T00:45:56;9.10;99.90
19892;DHT22;10108;50.142;8.724;2024-02-21T00:48:22;9.10;99.90
19892;DHT22;10108;50.142;8.724;2024-02-21T00:50:48;9.10;99.90
19892;DHT22;10108;50.142;8.724;2024-02-21T00:53:15;9.10;99.90
19892;DHT22;10108;50.142;8.724;2024-02-21T00:55:41;9.20;99.90
19892;DHT22;10108;50.142;8.724;2024-02-21T00:58:09;9.20;99.90
19892;DHT22;10108;50.142;8.724;2024-02-21T01:00:35;9.20;99.90
19892;DHT22;10108;50.142;8.724;2024-02-21T01:03:02;9.20;99.90
19892;DHT22;10108;50.142;8.724;2024-02-21T01:05:28;9.20;99.90
19892;DHT22;10108;50.142;8.724;2024-02-21T01:07:55;9.20;99.90
19892;DHT22;10108;50.142;8.724;2024-02-21T01:10:21;9.10;99.90
19892;DHT22;10108;50.142;8.724;2024-02-21T01:12:48;9.20;99.90
19892;DHT22;10108;50.142;8.724;2024-02-21T01:15:15;9.10;99.90
19892;DHT22;10108;50.142;8.724;2024-02-21T01:17:41;9.10;99.90
19892;DHT22;10108;50.142;8.724;2024-02-21T01:20:08;9.10;99.90
19892;DHT22;10108;50.142;8.724;2024-02-21T01:22:34;9.10;99.90
19892;DHT22;10108;50.142;8.724;2024-02-21T01:25:01;9.10;99.90
19892;DHT22;10108;50.142;8.724;2024-02-21T01:27:27;9.10;99.90
19892;DHT22;10108;50.142;8.724;2024-02-21T01:29:53;9.10;99.90
19892;DHT22;10108;50.142;8.724;2024-02-21T01:32:20;9.10;99.90
19892;DHT22;10108;50.142;8.724;2024-02-21T01:34:46;9.10;99.90
19892;DHT22;10108;50.142;8.724;2024-02-21T01:37:12;9.10;99.90
19892;DHT22;10108;50.142;8.724;2024-02-21T01:39:38;9.20;99.90
19892;DHT22;10108;50.142;8.724;2024-02-21T01:42:05;9.20;99.90
19892;DHT22;10108;50.142;8.724;2024-02-21T01:44:32;9.20;99.90
19892;DHT22;10108;50.142;8.724;2024-02-21T01:46:58;9.20;99.90
19892;DHT22;10108;50.142;8.724;2024-02-21T01:49:25;9.30;99.90
19892;DHT22;10108;50.142;8.724;2024-02-21T01:51:51;9.30;99.90
19892;DHT22;10108;50.142;8.724;2024-02-21T01:54:19;9.30;99.90
19892;DHT22;10108;50.142;8.724;2024-02-21T01:56:46;9.30;99.90
19892;DHT22;10108;50.142;8.724;2024-02-21T01:59:13;9.30;99.90
19892;DHT22;10108;50.142;8.724;2024-02-21T02:01:41;9.20;99.90
19892;DHT22;10108;50.142;8.724;2024-02-21T02:04:08;9.30;99.90
19892;DHT22;10108;50.142;8.724;2024-02-21T02:06:35;9.30;99.90
19892;DHT22;10108;50.142;8.724;2024-02-21T02:09:01;9.30;99.90
19892;DHT22;10108;50.142;8.724;2024-02-21T02:11:27;9.30;99.90
19892;DHT22;10108;50.142;8.724;2024-02-21T02:13:54;9.30;99.90
19892;DHT22;10108;50.142;8.724;2024-02-21T02:16:20;9.20;99.90
19892;DHT22;10108;50.142;8.724;2024-02-21T02:18:47;9.20;99.90
19892;DHT22;10108;50.142;8.724;2024-02-21T02:21:29;9.30;99.90
19892;DHT22;10108;50.142;8.724;2024-02-21T02:23:56;9.30;99.90
19892;DHT22;10108;50.142;8.724;2024-02-21T02:26:22;9.30;99.90
19892;DHT22;10108;50.142;8.724;2024-02-21T02:28:48;9.20;99.90
19892;DHT22;10108;50.142;8.724;2024-02-21T02:31:15;9.20;99.90
19892;DHT22;10108;50.142;8.724;2024-02-21T02:33:43;9.30;99.90
19892;DHT22;10108;50.142;8.724;2024-02-21T02:36:10;9.30;99.90
19892;DHT22;10108;50.142;8.724;2024-02-21T02:38:37;9.30;99.90
19892;DHT22;10108;50.142;8.724;2024-02-21T02:41:03;9.30;99.90
19892;DHT22;10108;50.142;8.724;2024-02-21T02:43:45;9.30;99.90
19892;DHT22;10108;50.142;8.724;2024-02-21T02:46:11;9.30;99.90
19892;DHT22;10108;50.142;8.724;2024-02-21T02:48:37;9.30;99.90
19892;DHT22;10108;50.142;8.724;2024-02-21T02:51:04;9.30;99.90
19892;DHT22;10108;50.142;8.724;2024-02-21T02:53:31;9.30;99.90
19892;DHT22;10108;50.142;8.724;2024-02-21T02:55:57;9.30;99.90
19892;DHT22;10108;50.142;8.724;2024-02-21T02:58:23;9.30;99.90
19892;DHT22;10108;50.142;8.724;2024-02-21T03:00:50;9.40;99.90
19892;DHT22;10108;50.142;8.724;2024-02-21T03:03:16;9.40;99.90
19892;DHT22;10108;50.142;8.724;2024-02-21T03:05:42;9.40;99.90
19892;DHT22;10108;50.142;8.724;2024-02-21T03:08:08;9.40;99.90
19892;DHT22;10108;50.142;8.724;2024-02-21T03:10:35;9.40;99.90
19892;DHT22;10108;50.142;8.724;2024-02-21T03:13:01;9.50;99.90
19892;DHT22;10108;50.142;8.724;2024-02-21T03:15:28;9.50;99.90
19892;DHT22;10108;50.142;8.724;2024-02-21T03:17:54;9.50;99.90
19892;DHT22;10108;50.142;8.724;2024-02-21T03:20:20;9.50;99.90
19892;DHT22;10108;50.142;8.724;2024-02-21T03:22:46;9.50;99.90
19892;DHT22;10108;50.142;8.724;2024-02-21T03:25:13;9.50;99.90
19892;DHT22;10108;50.142;8.724;2024-02-21T03:27:41;9.50;99.90
19892;DHT22;10108;50.142;8.724;2024-02-21T03:30:07;9.60;99.90
19892;DHT22;10108;50.142;8.724;2024-02-21T03:32:34;9.50;99.90
19892;DHT22;10108;50.142;8.724;2024-02-21T03:35:01;9.60;99.90
19892;DHT22;10108;50.142;8.724;2024-02-21T03:37:27;9.50;99.90
19892;DHT22;10108;50.142;8.724;2024-02-21T03:39:53;9.50;99.90
19892;DHT22;10108;50.142;8.724;2024-02-21T03:42:19;9.50;99.90
19892;DHT22;10108;50.142;8.724;2024-02-21T03:44:46;9.50;99.90
19892;DHT22;10108;50.142;8.724;2024-02-21T03:47:12;9.40;99.90
19892;DHT22;10108;50.142;8.724;2024-02-21T03:49:38;9.40;99.90
19892;DHT22;10108;50.142;8.724;2024-02-21T03:52:05;9.40;99.90
19892;DHT22;10108;50.142;8.724;2024-02-21T03:54:31;9.40;99.90
19892;DHT22;10108;50.142;8.724;2024-02-21T03:56:58;9.40;99.90
19892;DHT22;10108;50.142;8.724;2024-02-21T03:59:24;9.40;99.90
19892;DHT22;10108;50.142;8.724;2024-02-21T04:01:53;9.40;99.90
19892;DHT22;10108;50.142;8.724;2024-02-21T04:04:20;9.50;99.90
19892;DHT22;10108;50.142;8.724;2024-02-21T04:06:50;9.50;99.90
19892;DHT22;10108;50.142;8.724;2024-02-21T04:09:17;9.50;99.90
19892;DHT22;10108;50.142;8.724;2024-02-21T04:11:44;9.50;99.90
19892;DHT22;10108;50.142;8.724;2024-02-21T04:14:10;9.50;99.90
19892;DHT22;10108;50.142;8.724;2024-02-21T04:16:37;9.60;99.90
19892;DHT22;10108;50.142;8.724;2024-02-21T04:19:04;9.60;99.90
19892;DHT22;10108;50.142;8.724;2024-02-21T04:21:31;9.60;99.90
19892;DHT22;10108;50.142;8.724;2024-02-21T04:23:57;9.60;99.90
19892;DHT22;10108;50.142;8.724;2024-02-21T04:26:24;9.60;99.90
19892;DHT22;10108;50.142;8.724;2024-02-21T04:28:51;9.60;99.90
19892;DHT22;10108;50.142;8.724;2024-02-21T04:31:17;9.60;99.90
19892;DHT22;10108;50.142;8.724;2024-02-21T04:33:43;9.60;99.90
19892;DHT22;10108;50.142;8.724;2024-02-21T04:36:09;9.50;99.90
19892;DHT22;10108;50.142;8.724;2024-02-21T04:38:36;9.50;99.90
19892;DHT22;10108;50.142;8.724;2024-02-21T04:41:02;9.60;99.90
19892;DHT22;10108;50.142;8.724;2024-02-21T04:43:28;9.60;99.90
19892;DHT22;10108;50.142;8.724;2024-02-21T04:45:54;9.60;99.90
19892;DHT22;10108;50.142;8.724;2024-02-21T04:48:21;9.50;99.90
19892;DHT22;10108;50.142;8.724;2024-02-21T04:50:47;9.60;99.90
19892;DHT22;10108;50.142;8.724;2024-02-21T04:53:14;9.50;99.90
19892;DHT22;10108;50.142;8.724;2024-02-21T04:55:40;9.50;99.90
19892;DHT22;10108;50.142;8.724;2024-02-21T04:58:07;9.50;99.90
19892;DHT22;10108;50.142;8.724;2024-02-21T05:00:33;9.40;99.90
19892;DHT22;10108;50.142;8.724;2024-02-21T05:02:59;9.40;99.90
19892;DHT22;10108;50.142;8.724;2024-02-21T05:05:26;9.40;99.90
19892;DHT22;10108;50.142;8.724;2024-02-21T05:07:52;9.30;99.90
19892;DHT22;10108;50.142;8.724;2024-02-21T05:10:18;9.30;99.90
19892;DHT22;10108;50.142;8.724;2024-02-21T05:12:45;9.30;99.90
19892;DHT22;10108;50.142;8.724;2024-02-21T05:15:11;9.30;99.90
19892;DHT22;10108;50.142;8.724;2024-02-21T05:17:38;9.20;99.90
19892;DHT22;10108;50.142;8.724;2024-02-21T05:20:04;9.20;99.90
19892;DHT22;10108;50.142;8.724;2024-02-21T05:22:31;9.20;99.90
19892;DHT22;10108;50.142;8.724;2024-02-21T05:24:58;9.20;99.90
19892;DHT22;10108;50.142;8.724;2024-02-21T05:27:24;9.30;99.90
19892;DHT22;10108;50.142;8.724;2024-02-21T05:29:50;9.30;99.90
19892;DHT22;10108;50.142;8.724;2024-02-21T05:32:16;9.30;99.90
19892;DHT22;10108;50.142;8.724;2024-02-21T05:34:43;9.30;99.90
19892;DHT22;10108;50.142;8.724;2024-02-21T05:37:09;9.30;99.90
19892;DHT22;10108;50.142;8.724;2024-02-21T05:39:35;9.30;99.90
19892;DHT22;10108;50.142;8.724;2024-02-21T05:42:02;9.30;99.90
19892;DHT22;10108;50.142;8.724;2024-02-21T05:44:28;9.30;99.90
19892;DHT22;10108;50.142;8.724;2024-02-21T05:46:55;9.30;99.90
19892;DHT22;10108;50.142;8.724;2024-02-21T05:49:22;9.30;99.90
19892;DHT22;10108;50.142;8.724;2024-02-21T05:51:48;9.40;99.90
19892;DHT22;10108;50.142;8.724;2024-02-21T05:54:14;9.40;99.90
19892;DHT22;10108;50.142;8.724;2024-02-21T05:56:44;9.40;99.90
19892;DHT22;10108;50.142;8.724;2024-02-21T05:59:11;9.40;99.90
19892;DHT22;10108;50.142;8.724;2024-02-21T06:01:38;9.30;99.90
19892;DHT22;10108;50.142;8.724;2024-02-21T06:04:07;9.40;99.90
19892;DHT22;10108;50.142;8.724;2024-02-21T06:06:33;9.30;99.90
19892;DHT22;10108;50.142;8.724;2024-02-21T06:09:00;9.30;99.90
19892;DHT22;10108;50.142;8.724;2024-02-21T06:11:28;9.20;99.90
19892;DHT22;10108;50.142;8.724;2024-02-21T06:13:55;9.20;99.90
19892;DHT22;10108;50.142;8.724;2024-02-21T06:16:21;9.20;99.90
19892;DHT22;10108;50.142;8.724;2024-02-21T06:18:47;9.20;99.90
19892;DHT22;10108;50.142;8.724;2024-02-21T06:21:14;9.10;99.90
19892;DHT22;10108;50.142;8.724;2024-02-21T06:23:42;9.10;99.90
19892;DHT22;10108;50.142;8.724;2024-02-21T06:26:09;9.00;99.90
19892;DHT22;10108;50.142;8.724;2024-02-21T06:28:35;8.90;99.90
19892;DHT22;10108;50.142;8.724;2024-02-21T06:31:02;8.90;99.90
19892;DHT22;10108;50.142;8.724;2024-02-21T06:33:28;8.90;99.90
19892;DHT22;10108;50.142;8.724;2024-02-21T06:35:55;8.90;99.90
19892;DHT22;10108;50.142;8.724;2024-02-21T06:38:21;8.90;99.90
19892;DHT22;10108;50.142;8.724;2024-02-21T06:40:48;8.90;99.90
19892;DHT22;10108;50.142;8.724;2024-02-21T06:43:18;8.90;99.90
19892;DHT22;10108;50.142;8.724;2024-02-21T06:45:45;8.90;99.90
19892;DHT22;10108;50.142;8.724;2024-02-21T06:48:20;8.80;99.90
19892;DHT22;10108;50.142;8.724;2024-02-21T06:50:47;8.80;99.90
19892;DHT22;10108;50.142;8.724;2024-02-21T06:53:14;8.80;99.90
19892;DHT22;10108;50.142;8.724;2024-02-21T06:55:40;8.80;99.90
19892;DHT22;10108;50.142;8.724;2024-02-21T06:58:07;8.80;99.90
19892;DHT22;10108;50.142;8.724;2024-02-21T07:00:38;8.90;99.90
19892;DHT22;10108;50.142;8.724;2024-02-21T07:03:05;8.90;99.90
19892;DHT22;10108;50.142;8.724;2024-02-21T07:05:31;9.00;99.90
19892;DHT22;10108;50.142;8.724;2024-02-21T07:07:57;9.00;99.90
19892;DHT22;10108;50.142;8.724;2024-02-21T07:10:24;9.00;99.90
19892;DHT22;10108;50.142;8.724;2024-02-21T07:12:50;9.00;99.90
19892;DHT22;10108;50.142;8.724;2024-02-21T07:15:18;9.10;99.90
19892;DHT22;10108;50.142;8.724;2024-02-21T07:17:44;9.00;99.90
19892;DHT22;10108;50.142;8.724;2024-02-21T07:20:11;9.10;99.90
19892;DHT22;10108;50.142;8.724;2024-02-21T07:22:37;9.10;99.90
19892;DHT22;10108;50.142;8.724;2024-02-21T07:25:04;9.20;99.90
19892;DHT22;10108;50.142;8.724;2024-02-21T07:27:31;9.20;99.90
19892;DHT22;10108;50.142;8.724;2024-02-21T07:29:59;9.10;99.90
19892;DHT22;10108;50.142;8.724;2024-02-21T07:32:25;9.10;99.90
19892;DHT22;10108;50.142;8.724;2024-02-21T07:34:51;9.10;99.90
19892;DHT22;10108;50.142;8.724;2024-02-21T07:37:18;9.10;99.90
19892;DHT22;10108;50.142;8.724;2024-02-21T07:39:44;9.10;99.90
19892;DHT22;10108;50.142;8.724;2024-02-21T07:42:10;9.10;99.90
19892;DHT22;10108;50.142;8.724;2024-02-21T07:44:37;9.20;99.90
19892;DHT22;10108;50.142;8.724;2024-02-21T07:47:03;9.20;99.90
19892;DHT22;10108;50.142;8.724;2024-02-21T07:49:30;9.20;99.90
19892;DHT22;10108;50.142;8.724;2024-02-21T07:51:57;9.30;99.90
19892;DHT22;10108;50.142;8.724;2024-02-21T07:54:23;9.30;99.90
19892;DHT22;10108;50.142;8.724;2024-02-21T07:56:49;9.30;99.90
19892;DHT22;10108;50.142;8.724;2024-02-21T07:59:16;9.30;99.90
19892;DHT22;10108;50.142;8.724;2024-02-21T08:01:42;9.30;99.90
19892;DHT22;10108;50.142;8.724;2024-02-21T08:04:10;9.40;99.90
19892;DHT22;10108;50.142;8.724;2024-02-21T08:06:37;9.50;99.90
19892;DHT22;10108;50.142;8.724;2024-02-21T08:09:03;9.60;99.90
19892;DHT22;10108;50.142;8.724;2024-02-21T08:11:30;9.60;99.90
19892;DHT22;10108;50.142;8.724;2024-02-21T08:13:56;9.60;99.90
19892;DHT22;10108;50.142;8.724;2024-02-21T08:16:23;9.60;99.90
19892;DHT22;10108;50.142;8.724;2024-02-21T08:18:49;9.70;99.90
19892;DHT22;10108;50.142;8.724;2024-02-21T08:21:16;9.70;99.90
19892;DHT22;10108;50.142;8.724;2024-02-21T08:23:42;9.60;99.90
19892;DHT22;10108;50.142;8.724;2024-02-21T08:26:09;9.70;99.90
19892;DHT22;10108;50.142;8.724;2024-02-21T08:28:35;9.70;99.90
19892;DHT22;10108;50.142;8.724;2024-02-21T08:31:02;9.70;99.90
19892;DHT22;10108;50.142;8.724;2024-02-21T08:33:28;9.70;99.90
19892;DHT22;10108;50.142;8.724;2024-02-21T08:35:56;9.60;99.90
19892;DHT22;10108;50.142;8.724;2024-02-21T08:38:22;9.70;99.90
19892;DHT22;10108;50.142;8.724;2024-02-21T08:40:48;9.70;99.90
19892;DHT22;10108;50.142;8.724;2024-02-21T08:43:15;9.70;99.90
19892;DHT22;10108;50.142;8.724;2024-02-21T08:45:41;9.70;99.90
19892;DHT22;10108;50.142;8.724;2024-02-21T08:48:08;9.70;99.90
19892;DHT22;10108;50.142;8.724;2024-02-21T08:50:34;9.70;99.90
19892;DHT22;10108;50.142;8.724;2024-02-21T08:53:00;9.70;99.90
19892;DHT22;10108;50.142;8.724;2024-02-21T08:55:27;9.70;99.90
19892;DHT22;10108;50.142;8.724;2024-02-21T08:57:53;9.70;99.90
19892;DHT22;10108;50.142;8.724;2024-02-21T09:00:20;9.70;99.90
19892;DHT22;10108;50.142;8.724;2024-02-21T09:02:50;9.80;99.90
19892;DHT22;10108;50.142;8.724;2024-02-21T09:05:16;9.80;99.90
19892;DHT22;10108;50.142;8.724;2024-02-21T09:07:42;9.80;99.90
19892;DHT22;10108;50.142;8.724;2024-02-21T09:10:09;9.80;99.90
19892;DHT22;10108;50.142;8.724;2024-02-21T09:12:35;9.80;99.90
19892;DHT22;10108;50.142;8.724;2024-02-21T09:15:02;9.80;99.90
19892;DHT22;10108;50.142;8.724;2024-02-21T09:17:28;9.80;99.90
19892;DHT22;10108;50.142;8.724;2024-02-21T09:19:55;9.80;99.90
19892;DHT22;10108;50.142;8.724;2024-02-21T09:22:25;9.80;99.90
19892;DHT22;10108;50.142;8.724;2024-02-21T09:24:51;9.80;99.90
19892;DHT22;10108;50.142;8.724;2024-02-21T09:27:17;9.90;99.90
19892;DHT22;10108;50.142;8.724;2024-02-21T09:29:44;9.90;99.90
19892;DHT22;10108;50.142;8.724;2024-02-21T09:32:10;9.90;99.90
19892;DHT22;10108;50.142;8.724;2024-02-21T09:34:36;10.00;99.90
19892;DHT22;10108;50.142;8.724;2024-02-21T09:37:03;10.00;99.90
19892;DHT22;10108;50.142;8.724;2024-02-21T09:39:29;10.10;99.90
19892;DHT22;10108;50.142;8.724;2024-02-21T09:41:59;10.10;99.90
19892;DHT22;10108;50.142;8.724;2024-02-21T09:44:35;10.10;99.90
19892;DHT22;10108;50.142;8.724;2024-02-21T09:47:03;10.10;99.90
19892;DHT22;10108;50.142;8.724;2024-02-21T09:52:05;10.20;99.90
19892;DHT22;10108;50.142;8.724;2024-02-21T09:54:35;10.20;99.90
19892;DHT22;10108;50.142;8.724;2024-02-21T09:57:06;10.20;99.90
19892;DHT22;10108;50.142;8.724;2024-02-21T09:59:33;10.20;99.90
19892;DHT22;10108;50.142;8.724;2024-02-21T10:01:59;10.20;99.90
19892;DHT22;10108;50.142;8.724;2024-02-21T10:04:26;10.20;99.90
19892;DHT22;10108;50.142;8.724;2024-02-21T10:06:56;10.20;99.90
19892;DHT22;10108;50.142;8.724;2024-02-21T10:09:27;10.20;99.90
19892;DHT22;10108;50.142;8.724;2024-02-21T10:12:10;10.20;99.90
19892;DHT22;10108;50.142;8.724;2024-02-21T10:14:37;10.30;99.90
19892;DHT22;10108;50.142;8.724;2024-02-21T10:17:04;10.30;99.90
19892;DHT22;10108;50.142;8.724;2024-02-21T10:19:35;10.30;99.90
19892;DHT22;10108;50.142;8.724;2024-02-21T10:22:08;10.40;99.90
19892;DHT22;10108;50.142;8.724;2024-02-21T10:24:35;10.40;99.90
19892;DHT22;10108;50.142;8.724;2024-02-21T10:27:05;10.40;99.90
19892;DHT22;10108;50.142;8.724;2024-02-21T10:29:34;10.50;99.90
19892;DHT22;10108;50.142;8.724;2024-02-21T10:32:11;10.50;99.90
19892;DHT22;10108;50.142;8.724;2024-02-21T10:34:40;10.50;99.90
19892;DHT22;10108;50.142;8.724;2024-02-21T10:37:11;10.50;99.90
19892;DHT22;10108;50.142;8.724;2024-02-21T10:39:41;10.60;99.90
19892;DHT22;10108;50.142;8.724;2024-02-21T10:42:11;10.60;99.90
19892;DHT22;10108;50.142;8.724;2024-02-21T10:44:39;10.60;99.90
19892;DHT22;10108;50.142;8.724;2024-02-21T10:47:08;10.60;99.90
19892;DHT22;10108;50.142;8.724;2024-02-21T10:49:39;10.60;99.90
19892;DHT22;10108;50.142;8.724;2024-02-21T10:54:56;10.60;99.90
19892;DHT22;10108;50.142;8.724;2024-02-21T10:57:25;10.60;99.90
19892;DHT22;10108;50.142;8.724;2024-02-21T10:59:52;10.60;99.90
19892;DHT22;10108;50.142;8.724;2024-02-21T11:02:19;10.70;99.90
19892;DHT22;10108;50.142;8.724;2024-02-21T11:04:46;10.70;99.90
19892;DHT22;10108;50.142;8.724;2024-02-21T11:07:14;10.80;99.90
19892;DHT22;10108;50.142;8.724;2024-02-21T11:09:51;10.80;99.90
19892;DHT22;10108;50.142;8.724;2024-02-21T11:12:22;10.80;99.90
19892;DHT22;10108;50.142;8.724;2024-02-21T11:14:49;10.80;99.90
19892;DHT22;10108;50.142;8.724;2024-02-21T11:19:43;10.90;99.90
19892;DHT22;10108;50.142;8.724;2024-02-21T11:22:17;10.90;99.90
19892;DHT22;10108;50.142;8.724;2024-02-21T11:24:44;10.90;99.90
19892;DHT22;10108;50.142;8.724;2024-02-21T11:27:23;11.00;99.90
19892;DHT22;10108;50.142;8.724;2024-02-21T11:29:56;11.00;99.90
19892;DHT22;10108;50.142;8.724;2024-02-21T11:32:25;10.90;99.90
19892;DHT22;10108;50.142;8.724;2024-02-21T11:37:21;11.00;99.90
19892;DHT22;10108;50.142;8.724;2024-02-21T11:39:47;10.90;99.90
19892;DHT22;10108;50.142;8.724;2024-02-21T11:42:15;10.90;99.90
19892;DHT22;10108;50.142;8.724;2024-02-21T11:44:41;11.00;99.90
19892;DHT22;10108;50.142;8.724;2024-02-21T11:47:09;11.00;99.90
19892;DHT22;10108;50.142;8.724;2024-02-21T11:49:37;11.00;99.90
19892;DHT22;10108;50.142;8.724;2024-02-21T11:52:05;11.00;99.90
19892;DHT22;10108;50.142;8.724;2024-02-21T11:54:33;11.00;99.90
19892;DHT22;10108;50.142;8.724;2024-02-21T11:57:00;11.00;99.90
19892;DHT22;10108;50.142;8.724;2024-02-21T11:59:30;11.00;99.90
19892;DHT22;10108;50.142;8.724;2024-02-21T12:02:01;11.10;99.90
19892;DHT22;10108;50.142;8.724;2024-02-21T12:04:31;11.10;99.90
19892;DHT22;10108;50.142;8.724;2024-02-21T12:06:57;11.10;99.90
19892;DHT22;10108;50.142;8.724;2024-02-21T12:09:24;11.20;99.90
19892;DHT22;10108;50.142;8.724;2024-02-21T12:12:02;11.20;99.90
19892;DHT22;10108;50.142;8.724;2024-02-21T12:14:30;11.20;99.90
19892;DHT22;10108;50.142;8.724;2024-02-21T12:16:57;11.20;99.90
19892;DHT22;10108;50.142;8.724;2024-02-21T12:19:23;11.30;99.90
19892;DHT22;10108;50.142;8.724;2024-02-21T12:21:50;11.30;99.90
19892;DHT22;10108;50.142;8.724;2024-02-21T12:24:26;11.20;99.90
19892;DHT22;10108;50.142;8.724;2024-02-21T12:26:54;11.30;99.90
19892;DHT22;10108;50.142;8.724;2024-02-21T12:29:21;11.30;99.90
19892;DHT22;10108;50.142;8.724;2024-02-21T12:31:48;11.30;99.90
19892;DHT22;10108;50.142;8.724;2024-02-21T12:34:15;11.40;99.90
19892;DHT22;10108;50.142;8.724;2024-02-21T12:36:45;11.40;99.90
19892;DHT22;10108;50.142;8.724;2024-02-21T12:39:15;11.30;99.90
19892;DHT22;10108;50.142;8.724;2024-02-21T12:41:42;11.30;99.90
19892;DHT22;10108;50.142;8.724;2024-02-21T12:44:10;11.30;99.90
19892;DHT22;10108;50.142;8.724;2024-02-21T12:46:37;11.30;99.90
19892;DHT22;10108;50.142;8.724;2024-02-21T12:49:04;11.40;99.90
19892;DHT22;10108;50.142;8.724;2024-02-21T12:51:31;11.40;99.90
19892;DHT22;10108;50.142;8.724;2024-02-21T12:53:58;11.40;99.90
19892;DHT22;10108;50.142;8.724;2024-02-21T12:56:25;11.40;99.90
19892;DHT22;10108;50.142;8.724;2024-02-21T12:58:57;11.40;99.90
19892;DHT22;10108;50.142;8.724;2024-02-21T13:01:24;11.40;99.90
19892;DHT22;10108;50.142;8.724;2024-02-21T13:03:50;11.30;99.90
19892;DHT22;10108;50.142;8.724;2024-02-21T13:06:16;11.30;99.90
19892;DHT22;10108;50.142;8.724;2024-02-21T13:08:43;11.40;99.90
19892;DHT22;10108;50.142;8.724;2024-02-21T13:11:10;11.30;99.90
19892;DHT22;10108;50.142;8.724;2024-02-21T13:13:37;11.40;99.90
19892;DHT22;10108;50.142;8.724;2024-02-21T13:16:04;11.40;99.90
19892;DHT22;10108;50.142;8.724;2024-02-21T13:18:30;11.40;99.90
19892;DHT22;10108;50.142;8.724;2024-02-21T13:20:58;11.40;99.90
19892;DHT22;10108;50.142;8.724;2024-02-21T13:23:25;11.40;99.90
19892;DHT22;10108;50.142;8.724;2024-02-21T13:25:51;11.40;99.90
19892;DHT22;10108;50.142;8.724;2024-02-21T13:28:17;11.40;99.90
19892;DHT22;10108;50.142;8.724;2024-02-21T13:30:43;11.40;99.90
19892;DHT22;10108;50.142;8.724;2024-02-21T13:33:10;11.40;99.90
19892;DHT22;10108;50.142;8.724;2024-02-21T13:35:36;11.40;99.90
19892;DHT22;10108;50.142;8.724;2024-02-21T13:38:03;11.40;99.90
19892;DHT22;10108;50.142;8.724;2024-02-21T13:40:29;11.50;99.90
19892;DHT22;10108;50.142;8.724;2024-02-21T13:42:56;11.40;99.90
19892;DHT22;10108;50.142;8.724;2024-02-21T13:45:22;11.40;99.90
19892;DHT22;10108;50.142;8.724;2024-02-21T13:47:49;11.50;99.90
19892;DHT22;10108;50.142;8.724;2024-02-21T13:50:16;11.50;99.90
19892;DHT22;10108;50.142;8.724;2024-02-21T13:52:43;11.50;99.90
19892;DHT22;10108;50.142;8.724;2024-02-21T13:55:09;11.50;99.90
19892;DHT22;10108;50.142;8.724;2024-02-21T13:57:36;11.50;99.90
19892;DHT22;10108;50.142;8.724;2024-02-21T14:00:03;11.50;99.90
19892;DHT22;10108;50.142;8.724;2024-02-21T14:02:38;11.50;99.90
19892;DHT22;10108;50.142;8.724;2024-02-21T14:05:05;11.50;99.90
19892;DHT22;10108;50.142;8.724;2024-02-21T14:07:32;11.60;99.90
19892;DHT22;10108;50.142;8.724;2024-02-21T14:10:02;11.60;99.90
19892;DHT22;10108;50.142;8.724;2024-02-21T14:12:29;11.60;99.90
19892;DHT22;10108;50.142;8.724;2024-02-21T14:14:56;11.70;99.90
19892;DHT22;10108;50.142;8.724;2024-02-21T14:17:24;11.70;99.90
19892;DHT22;10108;50.142;8.724;2024-02-21T14:19:51;11.70;99.90
19892;DHT22;10108;50.142;8.724;2024-02-21T14:22:17;11.70;99.90
19892;DHT22;10108;50.142;8.724;2024-02-21T14:24:44;11.60;99.90
19892;DHT22;10108;50.142;8.724;2024-02-21T14:27:11;11.60;99.90
19892;DHT22;10108;50.142;8.724;2024-02-21T14:29:38;11.60;99.90
19892;DHT22;10108;50.142;8.724;2024-02-21T14:32:05;11.60;99.90
19892;DHT22;10108;50.142;8.724;2024-02-21T14:34:32;11.60;99.90
19892;DHT22;10108;50.142;8.724;2024-02-21T14:36:58;11.60;99.90
19892;DHT22;10108;50.142;8.724;2024-02-21T14:39:24;11.60;99.90
19892;DHT22;10108;50.142;8.724;2024-02-21T14:41:50;11.60;99.90
19892;DHT22;10108;50.142;8.724;2024-02-21T14:44:17;11.60;99.90
19892;DHT22;10108;50.142;8.724;2024-02-21T14:46:43;11.60;99.90
19892;DHT22;10108;50.142;8.724;2024-02-21T14:49:10;11.60;99.90
19892;DHT22;10108;50.142;8.724;2024-02-21T14:51:37;11.50;99.90
19892;DHT22;10108;50.142;8.724;2024-02-21T14:54:04;11.50;99.90
19892;DHT22;10108;50.142;8.724;2024-02-21T14:56:30;11.50;99.90
19892;DHT22;10108;50.142;8.724;2024-02-21T14:58:57;11.50;99.90
19892;DHT22;10108;50.142;8.724;2024-02-21T15:01:24;11.50;99.90
19892;DHT22;10108;50.142;8.724;2024-02-21T15:03:51;11.50;99.90
19892;DHT22;10108;50.142;8.724;2024-02-21T15:06:17;11.50;99.90
19892;DHT22;10108;50.142;8.724;2024-02-21T15:08:43;11.50;99.90
19892;DHT22;10108;50.142;8.724;2024-02-21T15:11:10;11.50;99.90
19892;DHT22;10108;50.142;8.724;2024-02-21T15:13:36;11.50;99.90
19892;DHT22;10108;50.142;8.724;2024-02-21T15:16:03;11.40;99.90
19892;DHT22;10108;50.142;8.724;2024-02-21T15:18:31;11.40;99.90
19892;DHT22;10108;50.142;8.724;2024-02-21T15:20:59;11.50;99.90
19892;DHT22;10108;50.142;8.724;2024-02-21T15:23:27;11.50;99.90
19892;DHT22;10108;50.142;8.724;2024-02-21T15:25:53;11.50;99.90
19892;DHT22;10108;50.142;8.724;2024-02-21T15:28:19;11.40;99.90
19892;DHT22;10108;50.142;8.724;2024-02-21T15:30:46;11.40;99.90
19892;DHT22;10108;50.142;8.724;2024-02-21T15:33:12;11.40;99.90
19892;DHT22;10108;50.142;8.724;2024-02-21T15:35:38;11.40;99.90
19892;DHT22;10108;50.142;8.724;2024-02-21T15:38:05;11.40;99.90
19892;DHT22;10108;50.142;8.724;2024-02-21T15:40:31;11.30;99.90
19892;DHT22;10108;50.142;8.724;2024-02-21T15:43:02;11.30;99.90
19892;DHT22;10108;50.142;8.724;2024-02-21T15:45:29;11.30;99.90
19892;DHT22;10108;50.142;8.724;2024-02-21T15:47:55;11.30;99.90
19892;DHT22;10108;50.142;8.724;2024-02-21T15:50:22;11.20;99.90